Etusivu
METAR-TAF:

METAR-TAF

Lentoasemat :

Savonlinna, Suomi

Savonlinnan lentoasema

Leveyspiiri: 61-57N, Pituuspiiri: 028-57E, korkeus merenpinnasta: 95 m

Tämänhetkinen sää

Tämä raportti tehtiin 16 minuuttia sitten, kello 09.50 UTC
Tuuli 9 kn lännestä, vaihdellen lounaan ja lännen/luoteen välillä
Lämpötila 10°C
Kosteus 32%
Ilmanpaine 1019 hPa
Näkyvyys 10 km tai enemmän
ei pilviä alle 1500 m:ssä eikä cumulonimbus-pilviä

METAR: EFSA 270950Z AUTO 27009KT 220V300 CAVOK 10/M06 Q1019

Aika: 13:06 (10:06 UTC)

Sääennuste

Tämä raportti tehtiin 16 tuntia ja 35 minuuttia sitten, kello 17.31 UTC
Ennuste voimassa 26. päivästä klo 18 UTC - 26. päivään klo 20 UTC
Tuuli 9 kn pohjoisesta
Näkyvyys 10 km tai enemmän
ei pilviä alle 1500 m:ssä eikä cumulonimbus-pilviä

TAF: EFSA 261731Z 2618/2620 36009KT CAVOK

Säähavainnot ja -ennusteet yli 4000 lentoasemalta (METAR- ja TAF-raportit).

Käytössä olevat sääasemat on merkitty karttaan keltaisilla ja punaisilla pisteillä.

Aseta hiiri pisteen päälle nähdäksesi sääaseman nimen.

Klikkaa sitten nähdäksesi säähavainnot ja -ennusteet.

Kartan vaihtaminen: klikkaa mustalla rastilla varustettuja vihreitä pisteitä, niin voit zoomata sisään; viivalla varustettua vihreää pistettä, niin voit zoomata ulos tai vihreitä nuolia, niin pääset viereisille kartoille.


METAR-TAF: